sensor_id;sensor_type;location;lat;lon;timestamp;P1;durP1;ratioP1;P2;durP2;ratioP2
78296;SDS011;67555;47.660;19.622;2023-02-28T00:02:41;3.35;;;2.60;;
78296;SDS011;67555;47.660;19.622;2023-02-28T00:05:08;4.35;;;2.90;;
78296;SDS011;67555;47.660;19.622;2023-02-28T00:07:36;4.00;;;1.70;;
78296;SDS011;67555;47.660;19.622;2023-02-28T00:10:03;3.45;;;2.55;;
78296;SDS011;67555;47.660;19.622;2023-02-28T00:12:31;3.72;;;3.17;;
78296;SDS011;67555;47.660;19.622;2023-02-28T00:14:57;3.05;;;2.15;;
78296;SDS011;67555;47.660;19.622;2023-02-28T00:17:23;4.57;;;2.42;;
78296;SDS011;67555;47.660;19.622;2023-02-28T00:19:49;3.05;;;2.30;;
78296;SDS011;67555;47.660;19.622;2023-02-28T00:22:16;2.97;;;2.20;;
78296;SDS011;67555;47.660;19.622;2023-02-28T00:24:43;4.68;;;2.22;;
78296;SDS011;67555;47.660;19.622;2023-02-28T00:27:09;2.20;;;2.00;;
78296;SDS011;67555;47.660;19.622;2023-02-28T00:29:35;3.35;;;1.92;;
78296;SDS011;67555;47.660;19.622;2023-02-28T00:32:01;2.95;;;2.13;;
78296;SDS011;67555;47.660;19.622;2023-02-28T00:34:27;2.83;;;2.03;;
78296;SDS011;67555;47.660;19.622;2023-02-28T00:36:52;3.20;;;2.90;;
78296;SDS011;67555;47.660;19.622;2023-02-28T00:39:18;3.03;;;2.20;;
78296;SDS011;67555;47.660;19.622;2023-02-28T00:41:44;3.20;;;2.05;;
78296;SDS011;67555;47.660;19.622;2023-02-28T00:44:10;2.63;;;2.33;;
78296;SDS011;67555;47.660;19.622;2023-02-28T00:46:35;2.47;;;1.80;;
78296;SDS011;67555;47.660;19.622;2023-02-28T00:49:01;2.17;;;1.98;;
78296;SDS011;67555;47.660;19.622;2023-02-28T00:51:27;2.85;;;1.90;;
78296;SDS011;67555;47.660;19.622;2023-02-28T00:53:53;2.97;;;2.60;;
78296;SDS011;67555;47.660;19.622;2023-02-28T00:56:19;4.07;;;2.10;;
78296;SDS011;67555;47.660;19.622;2023-02-28T00:58:44;2.78;;;2.15;;
78296;SDS011;67555;47.660;19.622;2023-02-28T01:01:10;3.63;;;2.60;;
78296;SDS011;67555;47.660;19.622;2023-02-28T01:03:36;3.38;;;2.67;;
78296;SDS011;67555;47.660;19.622;2023-02-28T01:06:02;3.00;;;2.60;;
78296;SDS011;67555;47.660;19.622;2023-02-28T01:08:27;3.42;;;2.83;;
78296;SDS011;67555;47.660;19.622;2023-02-28T01:10:53;3.65;;;2.55;;
78296;SDS011;67555;47.660;19.622;2023-02-28T01:13:19;3.92;;;3.13;;
78296;SDS011;67555;47.660;19.622;2023-02-28T01:15:49;2.70;;;2.30;;
78296;SDS011;67555;47.660;19.622;2023-02-28T01:18:16;3.88;;;2.35;;
78296;SDS011;67555;47.660;19.622;2023-02-28T01:20:42;6.18;;;2.10;;
78296;SDS011;67555;47.660;19.622;2023-02-28T01:23:08;5.35;;;2.50;;
78296;SDS011;67555;47.660;19.622;2023-02-28T01:25:34;4.55;;;3.72;;
78296;SDS011;67555;47.660;19.622;2023-02-28T01:28:01;3.03;;;2.45;;
78296;SDS011;67555;47.660;19.622;2023-02-28T01:30:27;3.08;;;2.63;;
78296;SDS011;67555;47.660;19.622;2023-02-28T01:32:52;3.03;;;2.38;;
78296;SDS011;67555;47.660;19.622;2023-02-28T01:35:18;2.58;;;2.05;;
78296;SDS011;67555;47.660;19.622;2023-02-28T01:37:44;4.03;;;2.92;;
78296;SDS011;67555;47.660;19.622;2023-02-28T01:40:10;3.03;;;2.70;;
78296;SDS011;67555;47.660;19.622;2023-02-28T01:42:37;3.38;;;2.55;;
78296;SDS011;67555;47.660;19.622;2023-02-28T01:47:50;3.55;;;3.28;;
78296;SDS011;67555;47.660;19.622;2023-02-28T01:50:19;2.30;;;2.08;;
78296;SDS011;67555;47.660;19.622;2023-02-28T01:55:15;3.10;;;2.33;;
78296;SDS011;67555;47.660;19.622;2023-02-28T01:57:45;2.63;;;2.15;;
78296;SDS011;67555;47.660;19.622;2023-02-28T02:00:15;2.88;;;2.50;;
78296;SDS011;67555;47.660;19.622;2023-02-28T02:02:45;3.38;;;2.63;;
78296;SDS011;67555;47.660;19.622;2023-02-28T02:05:15;2.72;;;2.50;;
78296;SDS011;67555;47.660;19.622;2023-02-28T02:07:43;3.83;;;2.53;;
78296;SDS011;67555;47.660;19.622;2023-02-28T02:15:31;3.50;;;2.17;;
78296;SDS011;67555;47.660;19.622;2023-02-28T02:18:03;2.72;;;2.00;;
78296;SDS011;67555;47.660;19.622;2023-02-28T02:32:32;3.25;;;1.83;;
78296;SDS011;67555;47.660;19.622;2023-02-28T02:35:16;2.47;;;2.13;;
78296;SDS011;67555;47.660;19.622;2023-02-28T02:40:27;1.95;;;1.65;;
78296;SDS011;67555;47.660;19.622;2023-02-28T02:43:07;4.30;;;2.90;;
78296;SDS011;67555;47.660;19.622;2023-02-28T02:48:13;1.70;;;1.30;;
78296;SDS011;67555;47.660;19.622;2023-02-28T02:50:43;2.28;;;1.90;;
78296;SDS011;67555;47.660;19.622;2023-02-28T02:53:21;2.42;;;1.70;;
78296;SDS011;67555;47.660;19.622;2023-02-28T02:56:08;1.65;;;1.27;;
78296;SDS011;67555;47.660;19.622;2023-02-28T02:58:37;6.03;;;2.28;;
78296;SDS011;67555;47.660;19.622;2023-02-28T03:01:07;1.75;;;1.40;;
78296;SDS011;67555;47.660;19.622;2023-02-28T03:03:35;2.20;;;1.65;;
78296;SDS011;67555;47.660;19.622;2023-02-28T03:06:02;1.67;;;1.58;;
78296;SDS011;67555;47.660;19.622;2023-02-28T03:08:29;2.10;;;1.55;;
78296;SDS011;67555;47.660;19.622;2023-02-28T03:11:01;2.67;;;2.42;;
78296;SDS011;67555;47.660;19.622;2023-02-28T03:18:39;2.17;;;1.98;;
78296;SDS011;67555;47.660;19.622;2023-02-28T03:23:44;4.07;;;2.00;;
78296;SDS011;67555;47.660;19.622;2023-02-28T03:26:20;1.65;;;1.40;;
78296;SDS011;67555;47.660;19.622;2023-02-28T03:29:05;2.55;;;1.55;;
78296;SDS011;67555;47.660;19.622;2023-02-28T03:31:48;3.28;;;1.88;;
78296;SDS011;67555;47.660;19.622;2023-02-28T03:34:53;2.20;;;2.00;;
78296;SDS011;67555;47.660;19.622;2023-02-28T03:37:22;1.70;;;1.52;;
78296;SDS011;67555;47.660;19.622;2023-02-28T03:40:32;1.63;;;1.42;;
78296;SDS011;67555;47.660;19.622;2023-02-28T03:42:43;3.15;;;2.22;;
78296;SDS011;67555;47.660;19.622;2023-02-28T03:45:14;2.10;;;1.90;;
78296;SDS011;67555;47.660;19.622;2023-02-28T03:50:17;2.70;;;2.05;;
78296;SDS011;67555;47.660;19.622;2023-02-28T03:53:11;3.70;;;2.30;;
78296;SDS011;67555;47.660;19.622;2023-02-28T03:55:45;2.70;;;2.45;;
78296;SDS011;67555;47.660;19.622;2023-02-28T03:58:29;2.67;;;2.17;;
78296;SDS011;67555;47.660;19.622;2023-02-28T04:01:26;5.13;;;2.58;;
78296;SDS011;67555;47.660;19.622;2023-02-28T04:04:06;5.18;;;3.35;;
78296;SDS011;67555;47.660;19.622;2023-02-28T04:06:33;7.68;;;5.38;;
78296;SDS011;67555;47.660;19.622;2023-02-28T04:09:00;10.43;;;4.97;;
78296;SDS011;67555;47.660;19.622;2023-02-28T04:14:07;35.40;;;19.13;;
78296;SDS011;67555;47.660;19.622;2023-02-28T04:16:35;20.67;;;12.13;;
78296;SDS011;67555;47.660;19.622;2023-02-28T04:19:04;14.50;;;5.97;;
78296;SDS011;67555;47.660;19.622;2023-02-28T04:21:32;4.75;;;3.03;;
78296;SDS011;67555;47.660;19.622;2023-02-28T04:24:09;5.03;;;3.70;;
78296;SDS011;67555;47.660;19.622;2023-02-28T04:26:39;5.10;;;4.47;;
78296;SDS011;67555;47.660;19.622;2023-02-28T04:29:08;2.55;;;2.35;;
78296;SDS011;67555;47.660;19.622;2023-02-28T04:31:35;2.80;;;2.45;;
78296;SDS011;67555;47.660;19.622;2023-02-28T04:34:01;2.70;;;2.10;;
78296;SDS011;67555;47.660;19.622;2023-02-28T04:36:27;3.20;;;2.90;;
78296;SDS011;67555;47.660;19.622;2023-02-28T04:38:52;3.25;;;2.80;;
78296;SDS011;67555;47.660;19.622;2023-02-28T04:41:18;3.80;;;2.20;;
78296;SDS011;67555;47.660;19.622;2023-02-28T04:43:46;3.80;;;2.65;;
78296;SDS011;67555;47.660;19.622;2023-02-28T04:46:12;6.18;;;2.50;;
78296;SDS011;67555;47.660;19.622;2023-02-28T04:48:38;3.97;;;2.75;;
78296;SDS011;67555;47.660;19.622;2023-02-28T04:51:06;6.15;;;2.42;;
78296;SDS011;67555;47.660;19.622;2023-02-28T04:53:33;3.78;;;2.45;;
78296;SDS011;67555;47.660;19.622;2023-02-28T04:56:00;4.13;;;3.03;;
78296;SDS011;67555;47.660;19.622;2023-02-28T04:58:26;2.47;;;1.67;;
78296;SDS011;67555;47.660;19.622;2023-02-28T05:00:53;3.17;;;2.42;;
78296;SDS011;67555;47.660;19.622;2023-02-28T05:03:25;2.55;;;1.95;;
78296;SDS011;67555;47.660;19.622;2023-02-28T05:05:51;2.53;;;1.80;;
78296;SDS011;67555;47.660;19.622;2023-02-28T05:08:17;5.18;;;2.03;;
78296;SDS011;67555;47.660;19.622;2023-02-28T05:10:42;4.38;;;2.25;;
78296;SDS011;67555;47.660;19.622;2023-02-28T05:13:10;2.33;;;2.13;;
78296;SDS011;67555;47.660;19.622;2023-02-28T05:15:37;2.65;;;2.08;;
78296;SDS011;67555;47.660;19.622;2023-02-28T05:18:03;1.88;;;1.75;;
78296;SDS011;67555;47.660;19.622;2023-02-28T05:20:29;4.00;;;1.98;;
78296;SDS011;67555;47.660;19.622;2023-02-28T05:22:55;3.95;;;2.58;;
78296;SDS011;67555;47.660;19.622;2023-02-28T05:25:23;3.15;;;2.75;;
78296;SDS011;67555;47.660;19.622;2023-02-28T05:27:49;3.95;;;3.05;;
78296;SDS011;67555;47.660;19.622;2023-02-28T05:30:15;1.90;;;1.63;;
78296;SDS011;67555;47.660;19.622;2023-02-28T05:32:41;2.88;;;2.17;;
78296;SDS011;67555;47.660;19.622;2023-02-28T05:35:08;2.72;;;2.40;;
78296;SDS011;67555;47.660;19.622;2023-02-28T05:37:38;3.88;;;2.97;;
78296;SDS011;67555;47.660;19.622;2023-02-28T05:40:04;2.15;;;1.88;;
78296;SDS011;67555;47.660;19.622;2023-02-28T05:42:32;2.35;;;2.15;;
78296;SDS011;67555;47.660;19.622;2023-02-28T05:44:58;2.70;;;2.47;;
78296;SDS011;67555;47.660;19.622;2023-02-28T05:47:24;10.77;;;5.65;;
78296;SDS011;67555;47.660;19.622;2023-02-28T05:49:49;8.88;;;7.28;;
78296;SDS011;67555;47.660;19.622;2023-02-28T05:52:15;4.07;;;2.95;;
78296;SDS011;67555;47.660;19.622;2023-02-28T05:54:41;4.70;;;3.30;;
78296;SDS011;67555;47.660;19.622;2023-02-28T05:57:07;3.85;;;2.17;;
78296;SDS011;67555;47.660;19.622;2023-02-28T05:59:33;2.83;;;1.67;;
78296;SDS011;67555;47.660;19.622;2023-02-28T06:01:58;2.47;;;1.90;;
78296;SDS011;67555;47.660;19.622;2023-02-28T06:04:24;4.00;;;2.20;;
78296;SDS011;67555;47.660;19.622;2023-02-28T06:06:50;1.70;;;1.60;;
78296;SDS011;67555;47.660;19.622;2023-02-28T06:09:16;1.52;;;1.30;;
78296;SDS011;67555;47.660;19.622;2023-02-28T06:11:43;1.40;;;1.30;;
78296;SDS011;67555;47.660;19.622;2023-02-28T06:14:18;1.45;;;1.10;;
78296;SDS011;67555;47.660;19.622;2023-02-28T06:16:45;2.65;;;1.80;;
78296;SDS011;67555;47.660;19.622;2023-02-28T06:19:11;2.17;;;1.95;;
78296;SDS011;67555;47.660;19.622;2023-02-28T06:21:37;3.22;;;2.30;;
78296;SDS011;67555;47.660;19.622;2023-02-28T06:24:03;0.88;;;0.60;;
78296;SDS011;67555;47.660;19.622;2023-02-28T06:26:30;2.30;;;1.80;;
78296;SDS011;67555;47.660;19.622;2023-02-28T06:28:55;2.00;;;1.52;;
78296;SDS011;67555;47.660;19.622;2023-02-28T06:31:22;2.03;;;1.63;;
78296;SDS011;67555;47.660;19.622;2023-02-28T06:33:49;1.80;;;1.48;;
78296;SDS011;67555;47.660;19.622;2023-02-28T06:36:15;1.55;;;1.45;;
78296;SDS011;67555;47.660;19.622;2023-02-28T06:38:41;1.55;;;1.33;;
78296;SDS011;67555;47.660;19.622;2023-02-28T06:41:08;2.10;;;1.08;;
78296;SDS011;67555;47.660;19.622;2023-02-28T06:43:36;2.63;;;1.90;;
78296;SDS011;67555;47.660;19.622;2023-02-28T06:46:05;1.58;;;1.48;;
78296;SDS011;67555;47.660;19.622;2023-02-28T06:48:33;1.92;;;1.73;;
78296;SDS011;67555;47.660;19.622;2023-02-28T06:51:16;2.30;;;1.67;;
78296;SDS011;67555;47.660;19.622;2023-02-28T06:53:45;5.53;;;2.75;;
78296;SDS011;67555;47.660;19.622;2023-02-28T06:56:12;4.72;;;2.70;;
78296;SDS011;67555;47.660;19.622;2023-02-28T06:58:39;3.45;;;2.80;;
78296;SDS011;67555;47.660;19.622;2023-02-28T07:01:06;4.28;;;2.28;;
78296;SDS011;67555;47.660;19.622;2023-02-28T07:03:32;2.40;;;1.88;;
78296;SDS011;67555;47.660;19.622;2023-02-28T07:06:00;2.88;;;1.55;;
78296;SDS011;67555;47.660;19.622;2023-02-28T07:08:26;4.10;;;2.13;;
78296;SDS011;67555;47.660;19.622;2023-02-28T07:10:53;3.95;;;2.05;;
78296;SDS011;67555;47.660;19.622;2023-02-28T07:13:22;2.50;;;2.08;;
78296;SDS011;67555;47.660;19.622;2023-02-28T07:15:58;2.28;;;1.52;;
78296;SDS011;67555;47.660;19.622;2023-02-28T07:18:26;3.65;;;2.08;;
78296;SDS011;67555;47.660;19.622;2023-02-28T07:20:52;3.05;;;2.25;;
78296;SDS011;67555;47.660;19.622;2023-02-28T07:23:18;2.28;;;1.75;;
78296;SDS011;67555;47.660;19.622;2023-02-28T07:25:44;3.15;;;2.15;;
78296;SDS011;67555;47.660;19.622;2023-02-28T07:28:11;3.05;;;1.88;;
78296;SDS011;67555;47.660;19.622;2023-02-28T07:30:38;3.00;;;2.10;;
78296;SDS011;67555;47.660;19.622;2023-02-28T07:33:04;2.85;;;2.00;;
78296;SDS011;67555;47.660;19.622;2023-02-28T07:35:30;2.08;;;1.70;;
78296;SDS011;67555;47.660;19.622;2023-02-28T07:37:57;5.25;;;2.47;;
78296;SDS011;67555;47.660;19.622;2023-02-28T07:40:23;3.35;;;2.00;;
78296;SDS011;67555;47.660;19.622;2023-02-28T07:42:49;2.58;;;1.80;;
78296;SDS011;67555;47.660;19.622;2023-02-28T07:45:15;2.95;;;1.95;;
78296;SDS011;67555;47.660;19.622;2023-02-28T07:47:41;3.17;;;2.47;;
78296;SDS011;67555;47.660;19.622;2023-02-28T07:50:09;3.20;;;2.28;;
78296;SDS011;67555;47.660;19.622;2023-02-28T07:52:37;3.05;;;2.13;;
78296;SDS011;67555;47.660;19.622;2023-02-28T07:55:04;3.25;;;2.10;;
78296;SDS011;67555;47.660;19.622;2023-02-28T07:57:30;3.50;;;1.83;;
78296;SDS011;67555;47.660;19.622;2023-02-28T07:59:57;2.17;;;1.92;;
78296;SDS011;67555;47.660;19.622;2023-02-28T08:02:22;2.85;;;2.17;;
78296;SDS011;67555;47.660;19.622;2023-02-28T08:04:48;2.92;;;2.17;;
78296;SDS011;67555;47.660;19.622;2023-02-28T08:07:14;5.97;;;2.63;;
78296;SDS011;67555;47.660;19.622;2023-02-28T08:09:41;3.65;;;2.47;;
78296;SDS011;67555;47.660;19.622;2023-02-28T08:12:08;4.50;;;2.20;;
78296;SDS011;67555;47.660;19.622;2023-02-28T08:14:34;3.78;;;2.58;;
78296;SDS011;67555;47.660;19.622;2023-02-28T08:17:00;2.88;;;2.10;;
78296;SDS011;67555;47.660;19.622;2023-02-28T08:19:26;2.38;;;1.90;;
78296;SDS011;67555;47.660;19.622;2023-02-28T08:21:52;2.92;;;2.45;;
78296;SDS011;67555;47.660;19.622;2023-02-28T08:24:19;1.70;;;1.60;;
78296;SDS011;67555;47.660;19.622;2023-02-28T08:26:44;2.42;;;2.05;;
78296;SDS011;67555;47.660;19.622;2023-02-28T08:29:10;1.38;;;1.17;;
78296;SDS011;67555;47.660;19.622;2023-02-28T08:31:36;1.27;;;1.17;;
78296;SDS011;67555;47.660;19.622;2023-02-28T08:34:08;3.17;;;2.60;;
78296;SDS011;67555;47.660;19.622;2023-02-28T08:36:36;5.07;;;2.80;;
78296;SDS011;67555;47.660;19.622;2023-02-28T08:39:02;2.65;;;1.73;;
78296;SDS011;67555;47.660;19.622;2023-02-28T08:41:28;2.20;;;1.70;;
78296;SDS011;67555;47.660;19.622;2023-02-28T08:43:54;5.43;;;3.17;;
78296;SDS011;67555;47.660;19.622;2023-02-28T08:46:20;2.20;;;1.58;;
78296;SDS011;67555;47.660;19.622;2023-02-28T08:48:46;5.60;;;2.42;;
78296;SDS011;67555;47.660;19.622;2023-02-28T08:51:13;2.83;;;1.80;;
78296;SDS011;67555;47.660;19.622;2023-02-28T08:53:46;5.50;;;2.50;;
78296;SDS011;67555;47.660;19.622;2023-02-28T08:56:15;4.40;;;2.83;;
78296;SDS011;67555;47.660;19.622;2023-02-28T08:58:41;4.50;;;2.90;;
78296;SDS011;67555;47.660;19.622;2023-02-28T09:01:18;3.88;;;1.90;;
78296;SDS011;67555;47.660;19.622;2023-02-28T09:03:45;2.25;;;2.05;;
78296;SDS011;67555;47.660;19.622;2023-02-28T09:06:13;2.17;;;1.85;;
78296;SDS011;67555;47.660;19.622;2023-02-28T09:08:40;4.10;;;2.00;;
78296;SDS011;67555;47.660;19.622;2023-02-28T09:11:06;4.22;;;2.40;;
78296;SDS011;67555;47.660;19.622;2023-02-28T09:13:32;1.83;;;1.38;;
78296;SDS011;67555;47.660;19.622;2023-02-28T09:15:59;3.03;;;1.52;;
78296;SDS011;67555;47.660;19.622;2023-02-28T09:18:26;2.67;;;1.73;;
78296;SDS011;67555;47.660;19.622;2023-02-28T09:20:52;3.90;;;2.10;;
78296;SDS011;67555;47.660;19.622;2023-02-28T09:23:18;3.90;;;2.42;;
78296;SDS011;67555;47.660;19.622;2023-02-28T09:25:48;2.45;;;2.08;;
78296;SDS011;67555;47.660;19.622;2023-02-28T09:28:16;2.35;;;1.48;;
78296;SDS011;67555;47.660;19.622;2023-02-28T09:30:46;2.22;;;1.95;;
78296;SDS011;67555;47.660;19.622;2023-02-28T09:33:17;3.20;;;2.10;;
78296;SDS011;67555;47.660;19.622;2023-02-28T09:35:45;3.17;;;2.00;;
78296;SDS011;67555;47.660;19.622;2023-02-28T09:38:12;2.50;;;2.05;;
78296;SDS011;67555;47.660;19.622;2023-02-28T09:40:57;2.30;;;2.10;;
78296;SDS011;67555;47.660;19.622;2023-02-28T09:43:26;2.75;;;1.83;;
78296;SDS011;67555;47.660;19.622;2023-02-28T09:46:04;2.78;;;2.30;;
78296;SDS011;67555;47.660;19.622;2023-02-28T09:48:37;5.35;;;3.17;;
78296;SDS011;67555;47.660;19.622;2023-02-28T09:54:12;3.53;;;2.30;;
78296;SDS011;67555;47.660;19.622;2023-02-28T09:56:44;2.75;;;2.38;;
78296;SDS011;67555;47.660;19.622;2023-02-28T09:59:29;5.85;;;2.53;;
78296;SDS011;67555;47.660;19.622;2023-02-28T10:04:47;4.70;;;2.75;;
78296;SDS011;67555;47.660;19.622;2023-02-28T10:09:49;3.55;;;2.60;;
78296;SDS011;67555;47.660;19.622;2023-02-28T10:12:20;4.65;;;2.55;;
78296;SDS011;67555;47.660;19.622;2023-02-28T10:14:47;3.85;;;2.50;;
78296;SDS011;67555;47.660;19.622;2023-02-28T10:17:23;3.50;;;2.40;;
78296;SDS011;67555;47.660;19.622;2023-02-28T10:19:58;4.97;;;2.70;;
78296;SDS011;67555;47.660;19.622;2023-02-28T10:22:28;3.58;;;2.05;;
78296;SDS011;67555;47.660;19.622;2023-02-28T10:25:20;2.67;;;2.20;;
78296;SDS011;67555;47.660;19.622;2023-02-28T10:27:49;3.40;;;2.58;;
78296;SDS011;67555;47.660;19.622;2023-02-28T10:30:18;3.30;;;2.60;;
78296;SDS011;67555;47.660;19.622;2023-02-28T10:32:49;3.10;;;2.50;;
78296;SDS011;67555;47.660;19.622;2023-02-28T10:35:19;3.72;;;2.88;;
78296;SDS011;67555;47.660;19.622;2023-02-28T10:37:51;4.57;;;2.85;;
78296;SDS011;67555;47.660;19.622;2023-02-28T10:42:55;4.38;;;2.85;;
78296;SDS011;67555;47.660;19.622;2023-02-28T10:45:31;4.38;;;3.00;;
78296;SDS011;67555;47.660;19.622;2023-02-28T10:53:25;4.72;;;2.88;;
78296;SDS011;67555;47.660;19.622;2023-02-28T11:01:27;5.03;;;3.63;;
78296;SDS011;67555;47.660;19.622;2023-02-28T11:04:00;2.35;;;2.03;;
78296;SDS011;67555;47.660;19.622;2023-02-28T11:06:28;4.32;;;2.92;;
78296;SDS011;67555;47.660;19.622;2023-02-28T11:09:06;5.32;;;2.83;;
78296;SDS011;67555;47.660;19.622;2023-02-28T11:11:54;5.90;;;3.42;;
78296;SDS011;67555;47.660;19.622;2023-02-28T11:15:03;5.15;;;3.08;;
78296;SDS011;67555;47.660;19.622;2023-02-28T11:17:24;4.25;;;2.88;;
78296;SDS011;67555;47.660;19.622;2023-02-28T11:19:53;4.47;;;2.80;;
78296;SDS011;67555;47.660;19.622;2023-02-28T11:22:23;4.20;;;2.92;;
78296;SDS011;67555;47.660;19.622;2023-02-28T11:24:53;5.75;;;2.80;;
78296;SDS011;67555;47.660;19.622;2023-02-28T11:27:39;5.65;;;3.40;;
78296;SDS011;67555;47.660;19.622;2023-02-28T11:32:52;5.38;;;2.83;;
78296;SDS011;67555;47.660;19.622;2023-02-28T11:35:22;3.50;;;3.00;;
78296;SDS011;67555;47.660;19.622;2023-02-28T11:37:59;4.20;;;2.72;;
78296;SDS011;67555;47.660;19.622;2023-02-28T11:48:11;5.97;;;3.50;;
78296;SDS011;67555;47.660;19.622;2023-02-28T11:54:28;5.78;;;3.38;;
78296;SDS011;67555;47.660;19.622;2023-02-28T11:56:36;5.80;;;3.78;;
78296;SDS011;67555;47.660;19.622;2023-02-28T12:07:47;4.22;;;3.10;;
78296;SDS011;67555;47.660;19.622;2023-02-28T12:10:22;4.28;;;3.22;;
78296;SDS011;67555;47.660;19.622;2023-02-28T12:15:45;4.95;;;2.88;;
78296;SDS011;67555;47.660;19.622;2023-02-28T12:21:52;4.28;;;2.92;;
78296;SDS011;67555;47.660;19.622;2023-02-28T12:24:18;6.10;;;3.50;;
78296;SDS011;67555;47.660;19.622;2023-02-28T12:29:30;5.63;;;3.70;;
78296;SDS011;67555;47.660;19.622;2023-02-28T12:34:52;6.40;;;3.95;;
78296;SDS011;67555;47.660;19.622;2023-02-28T12:40:23;4.45;;;3.40;;
78296;SDS011;67555;47.660;19.622;2023-02-28T12:42:58;6.95;;;3.92;;
78296;SDS011;67555;47.660;19.622;2023-02-28T12:45:39;3.95;;;3.03;;
78296;SDS011;67555;47.660;19.622;2023-02-28T12:48:20;5.20;;;3.40;;
78296;SDS011;67555;47.660;19.622;2023-02-28T12:51:02;5.85;;;3.38;;
78296;SDS011;67555;47.660;19.622;2023-02-28T12:53:31;5.22;;;2.67;;
78296;SDS011;67555;47.660;19.622;2023-02-28T13:14:41;4.88;;;3.35;;
78296;SDS011;67555;47.660;19.622;2023-02-28T13:19:35;3.83;;;3.40;;
78296;SDS011;67555;47.660;19.622;2023-02-28T13:28:10;6.97;;;3.70;;
78296;SDS011;67555;47.660;19.622;2023-02-28T13:33:21;10.32;;;4.85;;
78296;SDS011;67555;47.660;19.622;2023-02-28T13:35:50;6.90;;;4.40;;
78296;SDS011;67555;47.660;19.622;2023-02-28T13:38:33;6.03;;;3.70;;
78296;SDS011;67555;47.660;19.622;2023-02-28T13:44:01;9.73;;;5.03;;
78296;SDS011;67555;47.660;19.622;2023-02-28T13:46:32;5.45;;;3.67;;
78296;SDS011;67555;47.660;19.622;2023-02-28T13:51:45;6.13;;;4.03;;
78296;SDS011;67555;47.660;19.622;2023-02-28T13:59:50;11.73;;;4.55;;
78296;SDS011;67555;47.660;19.622;2023-02-28T14:05:20;6.28;;;4.05;;
78296;SDS011;67555;47.660;19.622;2023-02-28T14:07:52;5.25;;;4.07;;
78296;SDS011;67555;47.660;19.622;2023-02-28T14:10:23;6.68;;;4.22;;
78296;SDS011;67555;47.660;19.622;2023-02-28T14:16:08;5.75;;;4.22;;
78296;SDS011;67555;47.660;19.622;2023-02-28T14:18:37;8.40;;;4.00;;
78296;SDS011;67555;47.660;19.622;2023-02-28T14:33:03;6.35;;;4.50;;
78296;SDS011;67555;47.660;19.622;2023-02-28T14:35:52;4.60;;;3.33;;
78296;SDS011;67555;47.660;19.622;2023-02-28T14:38:24;5.32;;;3.42;;
78296;SDS011;67555;47.660;19.622;2023-02-28T14:41:06;7.15;;;3.65;;
78296;SDS011;67555;47.660;19.622;2023-02-28T14:43:53;4.50;;;3.17;;
78296;SDS011;67555;47.660;19.622;2023-02-28T14:46:22;6.13;;;4.72;;
78296;SDS011;67555;47.660;19.622;2023-02-28T14:48:51;7.82;;;4.30;;
78296;SDS011;67555;47.660;19.622;2023-02-28T14:51:18;7.60;;;4.50;;
78296;SDS011;67555;47.660;19.622;2023-02-28T14:56:24;6.47;;;5.20;;
78296;SDS011;67555;47.660;19.622;2023-02-28T14:59:04;12.77;;;7.35;;
78296;SDS011;67555;47.660;19.622;2023-02-28T15:01:46;34.28;;;17.75;;
78296;SDS011;67555;47.660;19.622;2023-02-28T15:04:16;50.30;;;29.75;;
78296;SDS011;67555;47.660;19.622;2023-02-28T15:09:35;36.00;;;19.83;;
78296;SDS011;67555;47.660;19.622;2023-02-28T15:12:01;10.20;;;6.50;;
78296;SDS011;67555;47.660;19.622;2023-02-28T15:14:27;9.65;;;4.60;;
78296;SDS011;67555;47.660;19.622;2023-02-28T15:16:58;5.85;;;4.18;;
78296;SDS011;67555;47.660;19.622;2023-02-28T15:19:28;14.07;;;8.35;;
78296;SDS011;67555;47.660;19.622;2023-02-28T15:21:59;62.45;;;32.90;;
78296;SDS011;67555;47.660;19.622;2023-02-28T15:24:51;66.15;;;36.15;;
78296;SDS011;67555;47.660;19.622;2023-02-28T15:27:21;38.15;;;20.35;;
78296;SDS011;67555;47.660;19.622;2023-02-28T15:29:56;55.63;;;29.98;;
78296;SDS011;67555;47.660;19.622;2023-02-28T15:34:54;66.95;;;34.38;;
78296;SDS011;67555;47.660;19.622;2023-02-28T15:37:28;88.00;;;43.53;;
78296;SDS011;67555;47.660;19.622;2023-02-28T15:39:56;40.35;;;22.60;;
78296;SDS011;67555;47.660;19.622;2023-02-28T15:42:27;23.85;;;11.90;;
78296;SDS011;67555;47.660;19.622;2023-02-28T15:44:53;38.13;;;19.77;;
78296;SDS011;67555;47.660;19.622;2023-02-28T15:47:23;65.85;;;33.60;;
78296;SDS011;67555;47.660;19.622;2023-02-28T15:54:56;65.65;;;32.92;;
78296;SDS011;67555;47.660;19.622;2023-02-28T15:57:27;47.33;;;26.80;;
78296;SDS011;67555;47.660;19.622;2023-02-28T15:59:55;74.60;;;48.28;;
78296;SDS011;67555;47.660;19.622;2023-02-28T16:02:31;71.40;;;40.45;;
78296;SDS011;67555;47.660;19.622;2023-02-28T16:05:00;78.95;;;46.20;;
78296;SDS011;67555;47.660;19.622;2023-02-28T16:07:28;56.15;;;28.90;;
78296;SDS011;67555;47.660;19.622;2023-02-28T16:09:54;32.75;;;15.68;;
78296;SDS011;67555;47.660;19.622;2023-02-28T16:12:21;32.10;;;16.60;;
78296;SDS011;67555;47.660;19.622;2023-02-28T16:14:55;6.72;;;4.57;;
78296;SDS011;67555;47.660;19.622;2023-02-28T16:17:27;5.43;;;4.20;;
78296;SDS011;67555;47.660;19.622;2023-02-28T16:19:58;10.27;;;5.65;;
78296;SDS011;67555;47.660;19.622;2023-02-28T16:22:25;9.60;;;6.32;;
78296;SDS011;67555;47.660;19.622;2023-02-28T16:24:51;9.23;;;5.85;;
78296;SDS011;67555;47.660;19.622;2023-02-28T16:27:20;9.73;;;6.00;;
78296;SDS011;67555;47.660;19.622;2023-02-28T16:29:49;7.70;;;5.55;;
78296;SDS011;67555;47.660;19.622;2023-02-28T16:32:15;24.42;;;12.88;;
78296;SDS011;67555;47.660;19.622;2023-02-28T16:34:42;10.77;;;6.07;;
78296;SDS011;67555;47.660;19.622;2023-02-28T16:37:12;10.10;;;5.60;;
78296;SDS011;67555;47.660;19.622;2023-02-28T16:39:41;19.25;;;8.80;;
78296;SDS011;67555;47.660;19.622;2023-02-28T16:42:15;23.92;;;11.30;;
78296;SDS011;67555;47.660;19.622;2023-02-28T16:44:47;38.47;;;17.50;;
78296;SDS011;67555;47.660;19.622;2023-02-28T16:47:13;28.52;;;13.15;;
78296;SDS011;67555;47.660;19.622;2023-02-28T16:49:39;26.83;;;13.02;;
78296;SDS011;67555;47.660;19.622;2023-02-28T16:52:07;20.33;;;11.05;;
78296;SDS011;67555;47.660;19.622;2023-02-28T16:54:39;17.15;;;9.85;;
78296;SDS011;67555;47.660;19.622;2023-02-28T16:57:08;33.03;;;17.63;;
78296;SDS011;67555;47.660;19.622;2023-02-28T16:59:46;19.20;;;10.43;;
78296;SDS011;67555;47.660;19.622;2023-02-28T17:02:13;39.30;;;17.52;;
78296;SDS011;67555;47.660;19.622;2023-02-28T17:04:41;60.25;;;24.52;;
78296;SDS011;67555;47.660;19.622;2023-02-28T17:07:10;76.72;;;33.92;;
78296;SDS011;67555;47.660;19.622;2023-02-28T17:09:37;73.95;;;31.13;;
78296;SDS011;67555;47.660;19.622;2023-02-28T17:12:03;57.30;;;26.48;;
78296;SDS011;67555;47.660;19.622;2023-02-28T17:14:29;47.50;;;20.98;;
78296;SDS011;67555;47.660;19.622;2023-02-28T17:16:55;45.35;;;24.00;;
78296;SDS011;67555;47.660;19.622;2023-02-28T17:19:21;38.17;;;20.42;;
78296;SDS011;67555;47.660;19.622;2023-02-28T17:21:47;34.40;;;16.30;;
78296;SDS011;67555;47.660;19.622;2023-02-28T17:24:12;36.00;;;18.85;;
78296;SDS011;67555;47.660;19.622;2023-02-28T17:26:39;43.20;;;19.90;;
78296;SDS011;67555;47.660;19.622;2023-02-28T17:29:16;39.33;;;19.73;;
78296;SDS011;67555;47.660;19.622;2023-02-28T17:31:44;36.53;;;19.10;;
78296;SDS011;67555;47.660;19.622;2023-02-28T17:34:10;37.33;;;18.70;;
78296;SDS011;67555;47.660;19.622;2023-02-28T17:36:36;33.92;;;20.13;;
78296;SDS011;67555;47.660;19.622;2023-02-28T17:39:03;48.55;;;25.23;;